Time;durP1;ratioP1;P1;durP2;ratioP2;P2;SDS_P1;SDS_P2;PMS_P1;PMS_P2;Temp;Humidity;BMP_temperature;BMP_pressure;BME280_temperature;BME280_humidity;BME280_pressure;Samples;Min_cycle;Max_cycle;Signal;HPM_P1;HPM_P2
2022/05/06 00:00:06;;;;;;;0.50;0.40;;;10.70;99.90;;;;;;5031725;28;20201;-76
2022/05/06 00:02:32;;;;;;;0.50;0.40;;;10.70;99.90;;;;;;5030955;28;20650;-77
2022/05/06 00:04:59;;;;;;;0.50;0.40;;;10.60;99.90;;;;;;5031669;28;20194;-76
2022/05/06 00:07:27;;;;;;;0.50;0.40;;;10.60;99.90;;;;;;5030928;28;20195;-76
2022/05/06 00:09:54;;;;;;;0.50;0.40;;;10.60;99.90;;;;;;5031031;28;20193;-77
2022/05/06 00:12:21;;;;;;;0.50;0.40;;;10.60;99.90;;;;;;5031342;28;20541;-77
2022/05/06 00:14:48;;;;;;;0.50;0.40;;;10.50;99.90;;;;;;5031382;28;20193;-76
2022/05/06 00:17:14;;;;;;;0.50;0.40;;;10.50;99.90;;;;;;5031296;28;20196;-74
2022/05/06 00:19:41;;;;;;;0.50;0.40;;;10.50;99.90;;;;;;5031423;28;20216;-76
2022/05/06 00:22:09;;;;;;;0.50;0.40;;;10.50;99.90;;;;;;5031176;28;20224;-76
2022/05/06 00:24:37;;;;;;;0.50;0.40;;;10.40;99.90;;;;;;5031016;28;20256;-77
2022/05/06 00:27:04;;;;;;;0.50;0.40;;;10.50;99.90;;;;;;5031061;28;20194;-77
2022/05/06 00:29:31;;;;;;;0.50;0.40;;;10.40;99.90;;;;;;5030962;28;20221;-75
2022/05/06 00:31:58;;;;;;;0.50;0.40;;;10.50;99.90;;;;;;5031291;28;20549;-76
2022/05/06 00:34:25;;;;;;;0.50;0.40;;;10.40;99.90;;;;;;5031120;28;20219;-72
2022/05/06 00:36:51;;;;;;;0.50;0.40;;;10.40;99.90;;;;;;5030732;28;20658;-78
2022/05/06 00:39:18;;;;;;;0.50;0.40;;;10.40;99.90;;;;;;5033697;28;20192;-76
2022/05/06 00:41:46;;;;;;;0.50;0.40;;;10.40;99.90;;;;;;5034975;28;20687;-76
2022/05/06 00:44:13;;;;;;;0.50;0.40;;;10.30;99.90;;;;;;5034281;28;20227;-76
2022/05/06 00:46:40;;;;;;;0.50;0.40;;;10.30;99.90;;;;;;5034842;28;20731;-76
2022/05/06 00:49:08;;;;;;;0.50;0.40;;;10.20;99.90;;;;;;5034676;28;20200;-76
2022/05/06 00:51:36;;;;;;;0.50;0.40;;;10.20;99.90;;;;;;5034654;28;20265;-72
2022/05/06 00:54:02;;;;;;;0.50;0.50;;;10.20;99.90;;;;;;5034553;28;20222;-75
2022/05/06 00:56:29;;;;;;;0.50;0.40;;;10.20;99.90;;;;;;5034529;28;20224;-74
2022/05/06 00:58:57;;;;;;;0.50;0.40;;;10.20;99.90;;;;;;5034054;28;20669;-77
2022/05/06 01:01:24;;;;;;;0.50;0.40;;;10.20;99.90;;;;;;5034693;28;20545;-77
2022/05/06 01:03:52;;;;;;;0.50;0.40;;;10.10;99.90;;;;;;5034229;28;20223;-76
2022/05/06 01:06:19;;;;;;;0.50;0.40;;;10.10;99.90;;;;;;5034471;28;20199;-76
2022/05/06 01:08:46;;;;;;;0.50;0.40;;;10.00;99.90;;;;;;5033924;28;20191;-76
2022/05/06 01:11:14;;;;;;;0.50;0.40;;;10.00;99.90;;;;;;5034194;28;20312;-76
2022/05/06 01:13:43;;;;;;;0.50;0.40;;;10.00;99.90;;;;;;5034234;28;20248;-77
2022/05/06 01:16:11;;;;;;;0.50;0.40;;;9.90;99.90;;;;;;5034431;28;20826;-77
2022/05/06 01:18:38;;;;;;;0.50;0.40;;;9.90;99.90;;;;;;5033894;28;20553;-76
2022/05/06 01:21:06;;;;;;;0.50;0.40;;;10.00;99.90;;;;;;5034076;28;20209;-76
2022/05/06 01:23:34;;;;;;;0.50;0.40;;;10.00;99.90;;;;;;5034145;28;20214;-78
2022/05/06 01:26:01;;;;;;;0.50;0.40;;;9.90;99.90;;;;;;5034017;28;20207;-76
2022/05/06 01:28:30;;;;;;;0.50;0.40;;;9.90;99.90;;;;;;5033803;28;20577;-76
2022/05/06 01:31:00;;;;;;;0.50;0.40;;;9.90;99.90;;;;;;5033541;28;20192;-77
2022/05/06 01:33:29;;;;;;;0.50;0.40;;;9.90;99.90;;;;;;5034191;28;20703;-77
2022/05/06 01:35:58;;;;;;;0.50;0.40;;;9.90;99.90;;;;;;5033988;28;20197;-76
2022/05/06 01:38:27;;;;;;;0.50;0.40;;;9.90;99.90;;;;;;5033848;28;20223;-76
2022/05/06 01:41:00;;;;;;;0.50;0.40;;;9.80;99.90;;;;;;5033720;28;20205;-76
2022/05/06 01:43:28;;;;;;;0.50;0.40;;;9.80;99.90;;;;;;5033374;28;20231;-76
2022/05/06 01:45:57;;;;;;;0.50;0.40;;;9.70;99.90;;;;;;5033557;28;20197;-76
2022/05/06 01:48:25;;;;;;;0.50;0.40;;;9.70;99.90;;;;;;5033508;28;20219;-76
2022/05/06 01:50:54;;;;;;;0.50;0.40;;;9.70;99.90;;;;;;5032167;28;20208;-77
2022/05/06 01:53:21;;;;;;;0.50;0.40;;;9.70;99.90;;;;;;5033582;28;20243;-77
2022/05/06 01:55:48;;;;;;;0.50;0.40;;;9.60;99.90;;;;;;5032818;28;20200;-76
2022/05/06 01:58:16;;;;;;;0.50;0.40;;;9.60;99.90;;;;;;5032745;28;20855;-76
2022/05/06 02:00:42;;;;;;;0.50;0.40;;;9.60;99.90;;;;;;5033582;28;20197;-76
2022/05/06 02:05:16;;;;;;;0.50;0.40;;;9.60;99.90;;;;;;5033335;28;20220;-77
2022/05/06 02:05:56;;;;;;;0.50;0.40;;;9.70;99.90;;;;;;5032710;28;20288;-76
2022/05/06 02:08:23;;;;;;;0.50;0.40;;;9.70;99.90;;;;;;5033093;28;20279;-76
2022/05/06 02:10:49;;;;;;;0.50;0.40;;;9.60;99.90;;;;;;5033214;28;20204;-76
2022/05/06 02:13:19;;;;;;;0.50;0.40;;;9.60;99.90;;;;;;5033184;28;20593;-75
2022/05/06 02:15:46;;;;;;;0.50;0.40;;;9.70;99.90;;;;;;5032697;28;20200;-76
2022/05/06 02:18:13;;;;;;;0.50;0.40;;;9.70;99.90;;;;;;5032847;28;20197;-76
2022/05/06 02:20:39;;;;;;;0.60;0.40;;;9.80;99.90;;;;;;5033181;28;20702;-76
2022/05/06 02:23:06;;;;;;;0.50;0.40;;;9.80;99.90;;;;;;5032852;28;20214;-77
2022/05/06 02:25:33;;;;;;;0.50;0.40;;;9.70;99.90;;;;;;5032805;28;20200;-76
2022/05/06 02:28:01;;;;;;;0.50;0.40;;;9.70;99.90;;;;;;5032489;28;20210;-76
2022/05/06 02:33:30;;;;;;;0.50;0.40;;;9.60;99.90;;;;;;4971757;28;20284;-76
2022/05/06 02:35:57;;;;;;;0.50;0.40;;;9.50;99.90;;;;;;4971004;28;20204;-77
2022/05/06 02:38:25;;;;;;;0.50;0.40;;;9.50;99.90;;;;;;4998788;28;20197;-76
2022/05/06 02:40:52;;;;;;;0.50;0.40;;;9.50;99.90;;;;;;5032732;28;20669;-76
2022/05/06 02:43:19;;;;;;;0.50;0.40;;;9.50;99.90;;;;;;5032375;28;20224;-76
2022/05/06 02:45:47;;;;;;;0.50;0.40;;;9.40;99.90;;;;;;5032832;28;20199;-75
2022/05/06 02:48:14;;;;;;;0.50;0.40;;;9.40;99.90;;;;;;5032362;28;20202;-77
2022/05/06 02:50:42;;;;;;;0.50;0.40;;;9.30;99.90;;;;;;5032164;28;20222;-76
2022/05/06 02:53:10;;;;;;;0.50;0.40;;;9.20;99.90;;;;;;5032379;28;20230;-76
2022/05/06 02:55:37;;;;;;;0.50;0.40;;;9.20;99.90;;;;;;5032301;28;20202;-77
2022/05/06 02:58:04;;;;;;;0.50;0.40;;;9.20;99.90;;;;;;5031634;28;20236;-74
2022/05/06 03:00:31;;;;;;;0.50;0.40;;;9.20;99.90;;;;;;5031949;28;20235;-77
2022/05/06 03:02:59;;;;;;;0.50;0.40;;;9.10;99.90;;;;;;5031751;28;20250;-76
2022/05/06 03:05:26;;;;;;;0.50;0.40;;;9.10;99.90;;;;;;5032320;28;20200;-76
2022/05/06 03:07:53;;;;;;;0.50;0.40;;;9.10;99.90;;;;;;5031599;28;20195;-76
2022/05/06 03:10:20;;;;;;;0.50;0.40;;;9.10;99.90;;;;;;5032127;28;20196;-76
2022/05/06 03:12:47;;;;;;;0.50;0.40;;;9.10;99.90;;;;;;5031339;28;20890;-76
2022/05/06 03:15:15;;;;;;;0.50;0.40;;;9.10;99.90;;;;;;5032269;28;20233;-76
2022/05/06 03:17:41;;;;;;;0.50;0.40;;;9.00;99.90;;;;;;5031895;28;20208;-76
2022/05/06 03:20:10;;;;;;;0.50;0.40;;;9.00;99.90;;;;;;5031782;28;20208;-76
2022/05/06 03:22:41;;;;;;;0.50;0.40;;;9.00;99.90;;;;;;5031848;28;20197;-76
2022/05/06 03:25:09;;;;;;;0.50;0.40;;;9.00;99.90;;;;;;5032189;28;20238;-76
2022/05/06 03:30:20;;;;;;;0.50;0.40;;;8.90;99.90;;;;;;5031913;28;20190;-76
2022/05/06 03:32:47;;;;;;;0.50;0.40;;;8.90;99.90;;;;;;5031555;28;20217;-75
2022/05/06 03:35:15;;;;;;;0.50;0.40;;;8.90;99.90;;;;;;5031285;28;20715;-76
2022/05/06 03:37:42;;;;;;;0.50;0.40;;;8.90;99.90;;;;;;5031558;28;20206;-76
2022/05/06 03:40:10;;;;;;;0.60;0.60;;;8.90;99.90;;;;;;5031376;28;20200;-76
2022/05/06 03:42:37;;;;;;;0.50;0.40;;;8.90;99.90;;;;;;5031667;28;20195;-76
2022/05/06 03:45:04;;;;;;;0.50;0.40;;;8.90;99.90;;;;;;5031500;28;20752;-75
2022/05/06 03:47:31;;;;;;;0.50;0.40;;;8.80;99.90;;;;;;5031236;28;20202;-74
2022/05/06 03:52:43;;;;;;;0.50;0.40;;;8.80;99.90;;;;;;5031387;28;20300;-76
2022/05/06 03:55:10;;;;;;;0.50;0.40;;;8.80;99.90;;;;;;5031673;28;20203;-76
2022/05/06 03:57:36;;;;;;;0.50;0.40;;;8.90;99.90;;;;;;5030902;28;20208;-76
2022/05/06 04:00:05;;;;;;;0.50;0.40;;;8.90;99.90;;;;;;5031539;28;20203;-75
2022/05/06 04:02:32;;;;;;;0.50;0.40;;;8.90;99.90;;;;;;5031042;28;20196;-75
2022/05/06 04:04:59;;;;;;;0.68;0.68;;;8.90;99.90;;;;;;5030654;28;20207;-75
2022/05/06 04:07:25;;;;;;;0.50;0.40;;;8.90;99.90;;;;;;5031032;28;20192;-76
2022/05/06 04:09:53;;;;;;;0.50;0.40;;;8.90;99.90;;;;;;5031390;28;20724;-76
2022/05/06 04:12:21;;;;;;;0.50;0.40;;;8.90;99.90;;;;;;5031607;28;20216;-75
2022/05/06 04:14:48;;;;;;;0.50;0.40;;;8.90;99.90;;;;;;5035040;28;20250;-76
2022/05/06 04:17:14;;;;;;;0.50;0.40;;;8.90;99.90;;;;;;5035472;28;20200;-75
2022/05/06 04:23:28;;;;;;;0.50;0.40;;;8.90;99.90;;;;;;5035496;28;20660;-76
2022/05/06 04:25:15;;;;;;;0.50;0.40;;;8.90;99.90;;;;;;5035127;28;20202;-76
2022/05/06 04:27:42;;;;;;;0.50;0.40;;;8.90;99.90;;;;;;5034601;28;20400;-76
2022/05/06 04:30:10;;;;;;;0.50;0.40;;;9.00;99.90;;;;;;5035014;28;20696;-76
2022/05/06 04:32:37;;;;;;;1.45;1.40;;;9.00;99.90;;;;;;5034823;28;20216;-77
2022/05/06 04:35:05;;;;;;;0.50;0.40;;;9.10;99.90;;;;;;5035307;28;20203;-77
2022/05/06 04:37:32;;;;;;;0.50;0.40;;;9.10;99.90;;;;;;5034186;28;20202;-74
2022/05/06 04:39:59;;;;;;;0.50;0.40;;;9.10;99.90;;;;;;5034873;28;20203;-77
2022/05/06 04:42:28;;;;;;;0.50;0.40;;;9.20;99.90;;;;;;5034692;28;20216;-75
2022/05/06 04:44:55;;;;;;;0.50;0.40;;;9.20;99.90;;;;;;5034865;28;20204;-76
2022/05/06 04:47:21;;;;;;;0.50;0.40;;;9.20;99.90;;;;;;5035520;28;20638;-77
2022/05/06 04:49:48;;;;;;;0.50;0.40;;;9.30;99.90;;;;;;5034396;28;20203;-76
2022/05/06 04:52:15;;;;;;;0.50;0.40;;;9.30;99.90;;;;;;5034562;28;20226;-76
2022/05/06 04:54:41;;;;;;;0.50;0.40;;;9.40;99.90;;;;;;5034568;28;20218;-75
2022/05/06 04:57:08;;;;;;;0.50;0.40;;;9.40;99.90;;;;;;5034493;28;20222;-76
2022/05/06 04:59:36;;;;;;;0.50;0.40;;;9.50;99.90;;;;;;5034332;28;20204;-71
2022/05/06 05:02:03;;;;;;;0.50;0.40;;;9.60;99.90;;;;;;5034004;28;20275;-76
2022/05/06 05:04:30;;;;;;;0.50;0.40;;;9.70;99.90;;;;;;5033703;28;20225;-75
2022/05/06 05:06:57;;;;;;;0.50;0.40;;;9.80;99.90;;;;;;5034197;28;20218;-76
2022/05/06 05:09:24;;;;;;;0.50;0.40;;;9.90;99.90;;;;;;5034210;28;20669;-76
2022/05/06 05:11:51;;;;;;;0.50;0.40;;;10.00;99.90;;;;;;5033860;28;20252;-77
2022/05/06 05:14:18;;;;;;;0.50;0.50;;;10.20;99.90;;;;;;5033826;28;20233;-76
2022/05/06 05:16:46;;;;;;;0.50;0.40;;;10.30;99.90;;;;;;5033692;28;20676;-76
2022/05/06 05:19:12;;;;;;;1.75;1.65;;;10.40;99.90;;;;;;5033913;28;20556;-76
2022/05/06 05:21:40;;;;;;;0.50;0.40;;;10.50;99.90;;;;;;5033877;28;20201;-73
2022/05/06 05:24:07;;;;;;;0.50;0.40;;;10.60;99.90;;;;;;5033546;28;20305;-76
2022/05/06 05:26:34;;;;;;;0.50;0.40;;;10.80;99.90;;;;;;5034155;28;20203;-75
2022/05/06 05:29:01;;;;;;;0.50;0.40;;;10.90;99.90;;;;;;5032885;28;20199;-76
2022/05/06 05:31:28;;;;;;;0.50;0.50;;;11.10;99.90;;;;;;5034307;28;20204;-76
2022/05/06 05:33:56;;;;;;;0.50;0.40;;;11.20;99.90;;;;;;5032618;28;20228;-76
2022/05/06 05:36:22;;;;;;;0.80;0.80;;;11.40;99.90;;;;;;5034138;28;20208;-77
2022/05/06 05:38:49;;;;;;;0.50;0.40;;;11.50;99.90;;;;;;5033105;28;20198;-76
2022/05/06 05:41:16;;;;;;;0.70;0.70;;;11.70;99.90;;;;;;5033471;28;20568;-76
2022/05/06 05:49:12;;;;;;;0.50;0.40;;;12.20;99.90;;;;;;5032719;28;20205;-76
2022/05/06 05:51:39;;;;;;;0.50;0.40;;;12.30;99.90;;;;;;5033067;28;20199;-72
2022/05/06 05:54:06;;;;;;;0.50;0.40;;;12.50;99.90;;;;;;5033205;28;20226;-78
2022/05/06 05:56:33;;;;;;;0.50;0.40;;;12.70;99.90;;;;;;5032461;28;20665;-75
2022/05/06 05:58:59;;;;;;;10.30;9.68;;;13.20;99.90;;;;;;5032701;28;20215;-74
2022/05/06 06:01:26;;;;;;;0.50;0.40;;;14.10;99.90;;;;;;5032706;28;20685;-77
2022/05/06 06:03:53;;;;;;;0.50;0.40;;;15.60;99.90;;;;;;5032254;28;20485;-76
2022/05/06 06:06:22;;;;;;;0.50;0.33;;;17.20;99.90;;;;;;5033376;28;20449;-77
2022/05/06 06:08:49;;;;;;;0.50;0.40;;;19.00;99.90;;;;;;5032490;28;20441;-75
2022/05/06 06:11:17;;;;;;;0.50;0.30;;;20.80;99.90;;;;;;5032790;28;20510;-77
2022/05/06 06:13:43;;;;;;;0.50;0.30;;;22.20;99.90;;;;;;5032717;28;20573;-78
2022/05/06 06:16:10;;;;;;;0.50;0.30;;;23.40;94.10;;;;;;5032900;28;20449;-77
2022/05/06 06:18:37;;;;;;;0.80;0.60;;;24.60;88.50;;;;;;5032819;28;20859;-77
2022/05/06 06:21:04;;;;;;;2.00;1.27;;;25.50;75.90;;;;;;5032540;28;20442;-77
2022/05/06 06:23:32;;;;;;;0.50;0.30;;;25.80;69.20;;;;;;5032812;28;20895;-77
2022/05/06 06:25:59;;;;;;;0.50;0.30;;;25.90;70.70;;;;;;5032691;28;20434;-77
2022/05/06 06:28:26;;;;;;;2.10;2.00;;;26.90;69.60;;;;;;5032515;28;20453;-77
2022/05/06 06:30:53;;;;;;;0.50;0.30;;;27.20;63.80;;;;;;5032531;28;20454;-77
2022/05/06 06:33:20;;;;;;;0.50;0.30;;;27.70;61.70;;;;;;5032180;28;20535;-75
2022/05/06 06:35:46;;;;;;;0.60;0.50;;;27.80;59.20;;;;;;5031736;28;20450;-78
2022/05/06 06:38:13;;;;;;;0.50;0.30;;;27.80;59.00;;;;;;5032211;28;20521;-77
2022/05/06 06:40:41;;;;;;;0.50;0.30;;;28.40;57.70;;;;;;5032270;28;20438;-77
2022/05/06 06:43:08;;;;;;;0.50;0.30;;;29.50;57.10;;;;;;5032142;28;20469;-77
2022/05/06 06:45:35;;;;;;;0.50;0.50;;;30.10;55.00;;;;;;5031921;28;20418;-77
2022/05/06 06:48:02;;;;;;;0.50;0.30;;;30.00;55.00;;;;;;5032253;28;20442;-77
2022/05/06 06:50:29;;;;;;;0.50;0.30;;;30.30;54.00;;;;;;5032085;28;20442;-77
2022/05/06 06:52:56;;;;;;;0.50;0.30;;;30.70;52.90;;;;;;5031933;28;20481;-78
2022/05/06 06:55:22;;;;;;;0.50;0.30;;;30.60;52.00;;;;;;5031736;28;20449;-75
2022/05/06 06:57:51;;;;;;;0.50;0.30;;;30.20;51.50;;;;;;5031528;28;20442;-77
2022/05/06 07:00:19;;;;;;;0.50;0.30;;;30.20;52.30;;;;;;5031989;28;20461;-74
2022/05/06 07:02:45;;;;;;;0.50;0.30;;;31.00;51.70;;;;;;5031871;28;20466;-75
2022/05/06 07:05:12;;;;;;;0.50;0.30;;;31.40;50.20;;;;;;5031272;28;20438;-75
2022/05/06 07:13:10;;;;;;;0.50;0.30;;;32.20;49.30;;;;;;5031621;28;20490;-75
2022/05/06 07:15:37;;;;;;;0.50;0.30;;;32.00;49.40;;;;;;5031723;28;20449;-75
2022/05/06 07:18:04;;;;;;;0.50;0.30;;;32.30;48.90;;;;;;5031180;28;20434;-75
2022/05/06 07:20:31;;;;;;;0.50;0.30;;;32.60;49.40;;;;;;5031819;28;20450;-74
2022/05/06 07:22:57;;;;;;;0.50;0.30;;;32.10;48.00;;;;;;5031594;28;20999;-75
2022/05/06 07:25:24;;;;;;;0.50;0.30;;;31.30;48.60;;;;;;5031843;28;20857;-74
2022/05/06 07:27:51;;;;;;;0.50;0.40;;;30.50;49.30;;;;;;5031147;28;20446;-74
2022/05/06 07:30:19;;;;;;;0.50;0.40;;;30.50;50.20;;;;;;5031382;28;20461;-74
2022/05/06 07:32:46;;;;;;;6.73;2.23;;;29.90;49.70;;;;;;5031512;28;20462;-77
2022/05/06 07:35:12;;;;;;;0.50;0.40;;;29.30;49.90;;;;;;5031030;28;20442;-79
2022/05/06 07:37:39;;;;;;;0.50;0.30;;;29.40;50.90;;;;;;5031563;28;20441;-78
2022/05/06 07:40:09;;;;;;;4.30;2.27;;;29.90;51.40;;;;;;5031236;28;20442;-76
2022/05/06 07:42:36;;;;;;;9.17;1.43;;;30.40;50.70;;;;;;5031153;28;20448;-77
2022/05/06 07:45:02;;;;;;;0.50;0.30;;;30.50;49.80;;;;;;5030939;28;20445;-77
2022/05/06 07:47:31;;;;;;;0.50;0.40;;;30.50;49.70;;;;;;5030323;28;20445;-79
2022/05/06 07:49:58;;;;;;;0.50;0.40;;;30.60;49.50;;;;;;5031455;28;20468;-77
2022/05/06 07:52:25;;;;;;;0.50;0.30;;;30.90;49.20;;;;;;5031247;28;20449;-77
2022/05/06 07:54:51;;;;;;;0.50;0.30;;;31.00;48.70;;;;;;5031010;28;20485;-74
2022/05/06 07:57:18;;;;;;;0.60;0.43;;;30.80;49.50;;;;;;5030888;28;20952;-75
2022/05/06 07:59:45;;;;;;;0.83;0.70;;;31.50;49.30;;;;;;5030985;28;20442;-75
2022/05/06 08:04:57;;;;;;;0.50;0.30;;;32.80;48.40;;;;;;5030809;28;20402;-74
2022/05/06 08:07:24;;;;;;;0.50;0.30;;;34.10;46.20;;;;;;5030481;28;20450;-73
2022/05/06 08:09:51;;;;;;;0.50;0.30;;;34.90;45.30;;;;;;5030771;28;20953;-75
2022/05/06 08:12:17;;;;;;;0.50;0.30;;;35.10;44.70;;;;;;5031065;28;20449;-75
2022/05/06 08:14:44;;;;;;;0.50;0.40;;;36.10;45.60;;;;;;5030985;28;20549;-75
2022/05/06 08:17:11;;;;;;;0.47;0.30;;;35.90;44.00;;;;;;5031045;28;20448;-74
2022/05/06 08:19:38;;;;;;;1.27;1.20;;;36.00;43.60;;;;;;5030636;28;20485;-73
2022/05/06 08:22:06;;;;;;;0.40;0.30;;;35.90;43.80;;;;;;5030492;28;20449;-75
2022/05/06 08:24:33;;;;;;;0.40;0.30;;;36.20;43.20;;;;;;5030820;28;20462;-73
2022/05/06 08:27:01;;;;;;;0.50;0.30;;;35.90;42.70;;;;;;5030719;28;20508;-74
2022/05/06 08:29:28;;;;;;;0.40;0.30;;;35.60;42.90;;;;;;5030308;28;20442;-75
2022/05/06 08:31:55;;;;;;;0.50;0.30;;;35.60;43.00;;;;;;5030541;28;20529;-74
2022/05/06 08:34:22;;;;;;;0.50;0.40;;;35.60;43.50;;;;;;5031153;28;20500;-76
2022/05/06 08:36:49;;;;;;;0.50;0.30;;;35.20;43.10;;;;;;5031001;28;20500;-74
2022/05/06 08:39:17;;;;;;;0.63;0.47;;;35.70;43.20;;;;;;5030347;28;20442;-75
2022/05/06 08:41:44;;;;;;;0.40;0.40;;;35.90;41.90;;;;;;5030889;28;20434;-75
2022/05/06 08:52:29;;;;;;;2.00;1.17;;;34.70;43.80;;;;;;5030738;28;20413;-74
2022/05/06 08:54:57;;;;;;;0.43;0.30;;;36.00;42.10;;;;;;5029887;28;20500;-75
2022/05/06 08:57:24;;;;;;;0.40;0.30;;;34.80;41.60;;;;;;5030483;28;20492;-74
2022/05/06 08:59:52;;;;;;;0.60;0.60;;;35.00;42.90;;;;;;5032994;28;20862;-74
2022/05/06 09:02:19;;;;;;;0.50;0.30;;;34.90;43.30;;;;;;5034258;28;20496;-74
2022/05/06 09:04:46;;;;;;;0.40;0.30;;;35.50;41.90;;;;;;5034037;28;20819;-74
2022/05/06 09:07:17;;;;;;;0.40;0.30;;;36.10;42.00;;;;;;5034628;28;20459;-75
2022/05/06 09:09:43;;;;;;;0.50;0.47;;;36.40;40.40;;;;;;5034382;28;20438;-72
2022/05/06 09:17:47;;;;;;;0.40;0.30;;;36.40;41.20;;;;;;5033393;28;20429;-74
2022/05/06 09:20:19;;;;;;;0.40;0.30;;;37.20;40.80;;;;;;5033924;28;20446;-75
2022/05/06 09:22:47;;;;;;;0.40;0.30;;;37.90;39.70;;;;;;5033668;28;20446;-74
2022/05/06 09:25:40;;;;;;;0.40;0.30;;;38.00;38.80;;;;;;5033988;28;20647;-77
2022/05/06 09:28:21;;;;;;;0.73;0.73;;;36.90;39.60;;;;;;5033322;28;20479;-74
2022/05/06 09:31:03;;;;;;;0.40;0.30;;;36.30;40.80;;;;;;5033394;28;20942;-71
2022/05/06 09:33:30;;;;;;;0.40;0.30;;;36.00;41.30;;;;;;5034294;28;20845;-72
2022/05/06 09:35:57;;;;;;;0.57;0.57;;;36.80;41.20;;;;;;5033622;28;20533;-75
2022/05/06 09:38:26;;;;;;;0.40;0.30;;;36.80;40.90;;;;;;5033546;28;20445;-75
2022/05/06 09:40:54;;;;;;;0.40;0.30;;;36.80;40.00;;;;;;5033223;28;20442;-75
2022/05/06 09:43:22;;;;;;;0.40;0.30;;;37.30;40.60;;;;;;5032927;28;20473;-74
2022/05/06 09:45:49;;;;;;;0.40;0.30;;;37.40;41.00;;;;;;5033193;28;20449;-75
2022/05/06 09:48:16;;;;;;;0.40;0.30;;;36.50;40.60;;;;;;5032625;28;20453;-75
2022/05/06 09:50:44;;;;;;;0.40;0.30;;;35.40;42.40;;;;;;5032946;28;20453;-74
2022/05/06 09:53:12;;;;;;;0.40;0.30;;;35.30;42.60;;;;;;5033206;28;20963;-74
2022/05/06 09:55:41;;;;;;;0.40;0.30;;;34.90;42.30;;;;;;5033492;28;20513;-74
2022/05/06 09:58:09;;;;;;;0.50;0.30;;;33.90;44.10;;;;;;5032523;28;20430;-75
2022/05/06 10:00:38;;;;;;;0.50;0.30;;;33.40;44.80;;;;;;5033324;28;20438;-75
2022/05/06 10:03:06;;;;;;;0.50;0.30;;;33.50;45.60;;;;;;5032911;28;20458;-74
2022/05/06 10:05:34;;;;;;;0.50;0.50;;;33.10;45.40;;;;;;5032665;28;20561;-72
2022/05/06 10:08:06;;;;;;;0.50;0.50;;;32.40;46.00;;;;;;5032683;28;20438;-74
2022/05/06 10:10:38;;;;;;;4.93;2.73;;;31.70;46.50;;;;;;5032058;28;20936;-76
2022/05/06 10:13:12;;;;;;;0.50;0.30;;;30.70;47.60;;;;;;5032806;28;20947;-75
2022/05/06 10:15:40;;;;;;;0.63;0.60;;;29.50;49.60;;;;;;5032608;28;20952;-73
2022/05/06 10:18:08;;;;;;;0.50;0.30;;;27.60;50.70;;;;;;5032483;28;20493;-74
2022/05/06 10:20:59;;;;;;;1.13;1.13;;;26.50;52.50;;;;;;5032746;28;20461;-76
2022/05/06 10:23:45;;;;;;;2.10;2.00;;;25.20;54.90;;;;;;5032623;28;20450;-76
2022/05/06 10:26:42;;;;;;;0.50;0.30;;;24.70;57.20;;;;;;5032539;28;20445;-77
2022/05/06 10:35:11;;;;;;;0.50;0.40;;;24.20;57.90;;;;;;5032102;28;20995;-76
2022/05/06 10:37:39;;;;;;;0.50;0.30;;;24.00;58.30;;;;;;5032225;28;20508;-76
2022/05/06 10:40:33;;;;;;;0.50;0.30;;;24.10;58.50;;;;;;5032152;28;20492;-76
2022/05/06 10:43:00;;;;;;;0.50;0.30;;;24.80;59.50;;;;;;5031660;28;20500;-77
2022/05/06 10:45:29;;;;;;;1.63;1.53;;;26.50;58.00;;;;;;5032723;28;20418;-76
2022/05/06 10:47:58;;;;;;;6.60;5.93;;;27.70;53.80;;;;;;5031762;28;20438;-77
2022/05/06 10:50:29;;;;;;;4.00;3.77;;;28.80;52.80;;;;;;5033379;28;20812;-77
2022/05/06 10:52:56;;;;;;;0.50;0.30;;;29.70;51.80;;;;;;5032153;28;20488;-77
2022/05/06 10:55:25;;;;;;;0.50;0.30;;;31.10;50.50;;;;;;5031619;28;20477;-77
2022/05/06 10:58:00;;;;;;;0.50;0.30;;;32.00;49.30;;;;;;5031589;28;20533;-75
2022/05/06 11:00:29;;;;;;;2.30;0.77;;;33.20;48.80;;;;;;5032252;28;20421;-74
2022/05/06 11:03:01;;;;;;;0.50;0.30;;;32.90;45.90;;;;;;5031954;28;20462;-72
2022/05/06 11:05:30;;;;;;;0.50;0.40;;;32.80;45.30;;;;;;5031261;28;20430;-73
2022/05/06 11:08:02;;;;;;;0.50;0.30;;;31.70;45.30;;;;;;5031631;28;20500;-75
2022/05/06 11:10:32;;;;;;;0.60;0.60;;;30.50;46.60;;;;;;5032122;28;20438;-74
2022/05/06 11:12:59;;;;;;;0.60;0.40;;;29.60;48.70;;;;;;5031426;28;20461;-74
2022/05/06 11:15:29;;;;;;;1.47;1.13;;;29.30;49.40;;;;;;5031607;28;20866;-74
2022/05/06 11:17:59;;;;;;;0.50;0.30;;;28.90;48.50;;;;;;5031713;28;20792;-76
2022/05/06 11:20:28;;;;;;;0.50;0.40;;;29.50;51.90;;;;;;5031897;28;20445;-77
2022/05/06 11:22:59;;;;;;;0.50;0.30;;;29.90;48.60;;;;;;5031867;28;20465;-75
2022/05/06 11:25:28;;;;;;;0.60;0.50;;;31.10;49.30;;;;;;5031320;28;20932;-75
2022/05/06 11:27:56;;;;;;;2.10;2.00;;;32.60;47.30;;;;;;5031280;28;20466;-76
2022/05/06 11:30:25;;;;;;;0.50;0.40;;;33.00;46.20;;;;;;5031718;28;20441;-77
2022/05/06 11:32:54;;;;;;;2.40;2.00;;;32.70;46.20;;;;;;5031775;28;20859;-76
2022/05/06 11:35:32;;;;;;;1.17;0.97;;;32.50;45.10;;;;;;5031557;28;20473;-77
2022/05/06 11:38:00;;;;;;;0.50;0.30;;;32.10;45.90;;;;;;5030975;28;20438;-77
2022/05/06 11:40:35;;;;;;;0.90;0.60;;;31.00;46.90;;;;;;5031593;28;20678;-77
2022/05/06 11:43:19;;;;;;;0.50;0.40;;;31.20;47.60;;;;;;5031485;28;20481;-76
2022/05/06 11:48:32;;;;;;;2.23;2.13;;;32.30;46.80;;;;;;5031228;28;20438;-75
2022/05/06 11:51:04;;;;;;;0.50;0.30;;;33.00;46.10;;;;;;5023479;28;20459;-76
2022/05/06 11:53:31;;;;;;;6.33;2.10;;;33.80;45.50;;;;;;5017474;28;21042;-73
2022/05/06 11:55:59;;;;;;;1.27;1.03;;;34.20;45.00;;;;;;5011681;28;20471;-76
2022/05/06 11:58:27;;;;;;;0.87;0.87;;;34.60;43.90;;;;;;5010943;28;20474;-78
2022/05/06 12:00:54;;;;;;;0.50;0.30;;;34.10;43.80;;;;;;5011815;28;20808;-77
2022/05/06 12:03:22;;;;;;;0.50;0.50;;;34.20;45.20;;;;;;5011128;28;20458;-77
2022/05/06 12:06:05;;;;;;;0.60;0.60;;;34.80;43.60;;;;;;5020222;28;20478;-75
2022/05/06 12:08:33;;;;;;;0.40;0.30;;;34.90;41.10;;;;;;5023036;28;20437;-75
2022/05/06 12:11:01;;;;;;;0.50;0.40;;;34.70;41.80;;;;;;5026103;28;20537;-75
2022/05/06 12:13:33;;;;;;;0.50;0.30;;;34.40;42.60;;;;;;5030995;28;20476;-76
2022/05/06 12:16:06;;;;;;;1.10;0.80;;;34.10;41.40;;;;;;5030863;28;21026;-75
2022/05/06 12:18:33;;;;;;;0.50;0.30;;;33.30;42.70;;;;;;5030736;28;20480;-76
2022/05/06 12:21:00;;;;;;;0.50;0.30;;;32.30;43.80;;;;;;5030834;28;20842;-76
2022/05/06 12:23:31;;;;;;;2.20;2.00;;;31.90;44.70;;;;;;5030385;28;20903;-78
2022/05/06 12:25:58;;;;;;;0.50;0.30;;;32.10;44.80;;;;;;5029911;28;20525;-74
2022/05/06 12:28:27;;;;;;;4.67;2.53;;;32.20;44.40;;;;;;5029936;28;20441;-75
2022/05/06 12:30:56;;;;;;;2.10;0.73;;;31.40;43.90;;;;;;5029590;28;20525;-75
2022/05/06 12:33:34;;;;;;;0.50;0.30;;;31.50;44.80;;;;;;5030465;28;20473;-75
2022/05/06 12:36:03;;;;;;;2.60;1.50;;;31.50;43.40;;;;;;5034664;28;20474;-75
2022/05/06 12:41:25;;;;;;;1.37;0.87;;;31.30;43.60;;;;;;5129744;27;20931;-75
2022/05/06 12:43:54;;;;;;;0.97;0.60;;;29.90;46.80;;;;;;5129038;28;20454;-75
2022/05/06 12:46:28;;;;;;;0.50;0.30;;;29.40;47.80;;;;;;5129366;27;20949;-76
2022/05/06 12:51:40;;;;;;;0.60;0.60;;;27.70;49.60;;;;;;5129263;28;20400;-75
2022/05/06 12:54:09;;;;;;;0.50;0.30;;;26.80;50.50;;;;;;5128894;27;20521;-76
2022/05/06 12:56:38;;;;;;;0.50;0.30;;;26.30;52.30;;;;;;5129088;27;20464;-75
2022/05/06 12:59:05;;;;;;;1.27;0.80;;;26.10;53.80;;;;;;5128716;27;20438;-75
2022/05/06 13:01:32;;;;;;;1.00;1.00;;;25.90;52.80;;;;;;5128778;27;21089;-75
2022/05/06 13:03:59;;;;;;;0.50;0.30;;;25.80;52.60;;;;;;5128221;27;20453;-75
2022/05/06 13:06:26;;;;;;;0.50;0.30;;;26.30;52.90;;;;;;5129043;27;20438;-74
2022/05/06 13:08:53;;;;;;;2.60;2.40;;;27.60;51.50;;;;;;5128021;27;20434;-75
2022/05/06 13:11:19;;;;;;;0.50;0.50;;;28.80;50.00;;;;;;5128370;27;20429;-75
2022/05/06 13:13:48;;;;;;;0.80;0.60;;;29.40;49.60;;;;;;5128767;27;20464;-75
2022/05/06 13:16:14;;;;;;;0.60;0.50;;;30.10;48.50;;;;;;5128918;27;20437;-75
2022/05/06 13:18:41;;;;;;;0.60;0.60;;;30.50;48.50;;;;;;5128517;27;20430;-75
2022/05/06 13:21:08;;;;;;;0.50;0.30;;;30.90;47.80;;;;;;5128730;27;20480;-76
2022/05/06 13:23:35;;;;;;;1.40;1.10;;;31.10;47.80;;;;;;5128982;27;20454;-76
2022/05/06 13:26:03;;;;;;;0.80;0.80;;;31.70;47.40;;;;;;5128485;27;20919;-77
2022/05/06 13:28:30;;;;;;;0.50;0.30;;;31.50;46.90;;;;;;5128198;27;20470;-76
2022/05/06 13:30:58;;;;;;;0.50;0.30;;;32.40;46.10;;;;;;5128584;27;20937;-76
2022/05/06 13:33:25;;;;;;;1.27;1.27;;;32.70;45.30;;;;;;5128012;27;20497;-77
2022/05/06 13:35:52;;;;;;;0.50;0.43;;;33.00;44.00;;;;;;5128290;27;20437;-76
2022/05/06 13:38:19;;;;;;;0.50;0.50;;;32.00;44.30;;;;;;5127716;27;20449;-76
2022/05/06 13:40:48;;;;;;;16.60;15.00;;;31.90;45.40;;;;;;5128273;27;20480;-75
2022/05/06 13:43:15;;;;;;;0.50;0.30;;;31.40;45.40;;;;;;5128362;27;20487;-76
2022/05/06 13:45:42;;;;;;;0.50;0.50;;;31.90;46.40;;;;;;5128036;27;20444;-76
2022/05/06 13:48:11;;;;;;;0.80;0.80;;;31.70;45.50;;;;;;5128497;27;20780;-76